Aérodrome :
LOGIN :

S'inscrire | Disclaimer

   EN    FR    IT 

 










Légende :    VFR   VFR Marginal   IFR   IFR Intensif   IFR Très Intensif
Visi : 
Plafond : 
>= 8 km
>= 3000ft
5 à 8 km
1000 à 3000 ft
1500m à 5 km
500 à 1000 ft
800 à 1500m
200 à 500 ft
< 800m
< 200 ft
Symboles :   Orages  Brouillard  Fortes neiges  Fortes précipitations  Vent > 20 kt
SIGMETs :   Divers  Orages  Givrage  Turbulence  Onde Orograph.  Cendres Volcan.







- Altitude de l'aérodrome : 14 ft
- Code IATA : BRE


EDDW - Bremen Neuenland

DERNIER METAR :
  • 152150Z VRB01KT CAVOK 13/11 Q1015 NOSIG

METARs EXPIRÉS :
  • 152120Z VRB02KT CAVOK 13/11 Q1015 NOSIG
  • 152050Z 14003KT CAVOK 13/11 Q1014 NOSIG
  • 152020Z VRB01KT CAVOK 13/12 Q1014 NOSIG
  • 151950Z VRB01KT CAVOK 14/12 Q1014 NOSIG
  • 151920Z 18002KT CAVOK 13/12 Q1014 NOSIG

TAF TAF EDDW
Valide du 15 à 18h jusqu'au 16 à 18h UTC


151700Z 1518/1618 VRB03KT CAVOK
BECMG 1523/1602 2500 BCFG
PROB40
TEMPO 1604/1607 0700 FG
BECMG 1606/1609 9999
TEMPO 1610/1615 27006KT
Pas de NOTAMs connus pour ce terrain.



MET'MAP, la Météo Aéronautique d'un coup d'oeil ! - Copyright ORBIFLY Décembre 2007 - Disclaimer

ORBIFLY MET'MAP TEAM :

Programmation & Développement : Alexandra Zaïnal
Conception & Développement : Baudouin d'Aumeries
Co-Programmation & Développement : Marc-Olivier Méhu
Soutien technique & logistique : Manuel Goepfert

Contact : metmap@orbifly.com




SOURCES & CREDITS :

   NOAA